sensor_id;sensor_type;location;lat;lon;timestamp;temperature;humidity
18175;DHT22;9212;50.894;16.714;2023-01-29T00:06:33;-2.90;99.90
18175;DHT22;9212;50.894;16.714;2023-01-29T00:16:24;-2.80;99.90
18175;DHT22;9212;50.894;16.714;2023-01-29T00:21:22;-2.80;99.90
18175;DHT22;9212;50.894;16.714;2023-01-29T00:23:50;-2.80;99.90
18175;DHT22;9212;50.894;16.714;2023-01-29T00:28:45;-2.80;99.90
18175;DHT22;9212;50.894;16.714;2023-01-29T00:31:13;-2.80;99.90
18175;DHT22;9212;50.894;16.714;2023-01-29T00:36:12;-2.60;99.90
18175;DHT22;9212;50.894;16.714;2023-01-29T00:38:42;-2.80;99.90
18175;DHT22;9212;50.894;16.714;2023-01-29T00:41:10;-2.80;99.90
18175;DHT22;9212;50.894;16.714;2023-01-29T00:43:57;-2.80;99.90
18175;DHT22;9212;50.894;16.714;2023-01-29T00:46:41;-3.40;99.90
18175;DHT22;9212;50.894;16.714;2023-01-29T00:51:37;-2.90;99.90
18175;DHT22;9212;50.894;16.714;2023-01-29T00:54:08;-2.30;99.90
18175;DHT22;9212;50.894;16.714;2023-01-29T00:56:36;-2.80;99.90
18175;DHT22;9212;50.894;16.714;2023-01-29T00:59:04;-2.80;99.90
18175;DHT22;9212;50.894;16.714;2023-01-29T01:14:27;-2.80;99.90
18175;DHT22;9212;50.894;16.714;2023-01-29T01:16:54;-3.80;99.90
18175;DHT22;9212;50.894;16.714;2023-01-29T01:26:45;-3.30;99.90
18175;DHT22;9212;50.894;16.714;2023-01-29T01:31:41;-2.80;99.90
18175;DHT22;9212;50.894;16.714;2023-01-29T01:34:08;-3.60;99.90
18175;DHT22;9212;50.894;16.714;2023-01-29T01:44:01;-2.70;99.90
18175;DHT22;9212;50.894;16.714;2023-01-29T01:46:34;-2.70;99.90
18175;DHT22;9212;50.894;16.714;2023-01-29T01:49:08;-2.70;99.90
18175;DHT22;9212;50.894;16.714;2023-01-29T01:51:38;-2.80;99.90
18175;DHT22;9212;50.894;16.714;2023-01-29T01:56:37;-2.70;99.90
18175;DHT22;9212;50.894;16.714;2023-01-29T02:01:35;-2.70;99.90
18175;DHT22;9212;50.894;16.714;2023-01-29T02:04:11;-2.80;99.90
18175;DHT22;9212;50.894;16.714;2023-01-29T02:12:15;-2.60;99.90
18175;DHT22;9212;50.894;16.714;2023-01-29T02:17:16;-2.90;99.90
18175;DHT22;9212;50.894;16.714;2023-01-29T02:19:56;-2.80;99.90
18175;DHT22;9212;50.894;16.714;2023-01-29T02:22:45;-2.80;99.90
18175;DHT22;9212;50.894;16.714;2023-01-29T02:25:41;-2.90;99.90
18175;DHT22;9212;50.894;16.714;2023-01-29T02:28:29;-2.80;99.90
18175;DHT22;9212;50.894;16.714;2023-01-29T02:31:03;-2.70;99.90
18175;DHT22;9212;50.894;16.714;2023-01-29T02:33:43;-2.70;99.90
18175;DHT22;9212;50.894;16.714;2023-01-29T02:36:20;-3.00;99.90
18175;DHT22;9212;50.894;16.714;2023-01-29T02:38:54;-2.60;99.90
18175;DHT22;9212;50.894;16.714;2023-01-29T02:41:30;-2.70;99.90
18175;DHT22;9212;50.894;16.714;2023-01-29T02:44:05;-2.70;99.90
18175;DHT22;9212;50.894;16.714;2023-01-29T02:46:38;-2.70;99.90
18175;DHT22;9212;50.894;16.714;2023-01-29T02:49:12;-3.40;99.90
18175;DHT22;9212;50.894;16.714;2023-01-29T02:51:48;-2.70;99.90
18175;DHT22;9212;50.894;16.714;2023-01-29T02:54:22;-2.70;99.90
18175;DHT22;9212;50.894;16.714;2023-01-29T02:56:54;-2.90;99.90
18175;DHT22;9212;50.894;16.714;2023-01-29T02:59:25;-2.70;99.90
18175;DHT22;9212;50.894;16.714;2023-01-29T03:01:56;-1.50;99.90
18175;DHT22;9212;50.894;16.714;2023-01-29T03:04:28;-2.70;99.90
18175;DHT22;9212;50.894;16.714;2023-01-29T03:06:59;-2.80;99.90
18175;DHT22;9212;50.894;16.714;2023-01-29T03:09:31;-2.00;99.90
18175;DHT22;9212;50.894;16.714;2023-01-29T03:12:04;-2.70;99.90
18175;DHT22;9212;50.894;16.714;2023-01-29T03:14:46;-3.40;99.90
18175;DHT22;9212;50.894;16.714;2023-01-29T03:17:37;-2.40;99.90
18175;DHT22;9212;50.894;16.714;2023-01-29T03:20:09;-3.60;99.90
18175;DHT22;9212;50.894;16.714;2023-01-29T03:22:38;-2.70;99.90
18175;DHT22;9212;50.894;16.714;2023-01-29T03:25:07;-2.60;99.90
18175;DHT22;9212;50.894;16.714;2023-01-29T03:27:56;-2.60;99.90
18175;DHT22;9212;50.894;16.714;2023-01-29T03:30:45;-2.50;99.90
18175;DHT22;9212;50.894;16.714;2023-01-29T03:33:37;-3.30;99.90
18175;DHT22;9212;50.894;16.714;2023-01-29T03:36:08;-2.60;99.90
18175;DHT22;9212;50.894;16.714;2023-01-29T03:41:08;-2.60;99.90
18175;DHT22;9212;50.894;16.714;2023-01-29T03:43:41;-2.60;99.90
18175;DHT22;9212;50.894;16.714;2023-01-29T03:46:17;-2.60;99.90
18175;DHT22;9212;50.894;16.714;2023-01-29T03:48:51;2.00;99.90
18175;DHT22;9212;50.894;16.714;2023-01-29T03:51:25;-2.70;99.90
18175;DHT22;9212;50.894;16.714;2023-01-29T03:54:02;-2.70;99.90
18175;DHT22;9212;50.894;16.714;2023-01-29T03:56:38;-2.60;99.90
18175;DHT22;9212;50.894;16.714;2023-01-29T03:59:16;-2.60;99.90
18175;DHT22;9212;50.894;16.714;2023-01-29T04:01:49;-2.70;99.90
18175;DHT22;9212;50.894;16.714;2023-01-29T04:04:21;-2.50;99.90
18175;DHT22;9212;50.894;16.714;2023-01-29T04:06:50;-2.70;99.90
18175;DHT22;9212;50.894;16.714;2023-01-29T04:09:21;-3.50;99.90
18175;DHT22;9212;50.894;16.714;2023-01-29T04:11:54;-2.50;99.90
18175;DHT22;9212;50.894;16.714;2023-01-29T04:16:54;-2.70;99.90
18175;DHT22;9212;50.894;16.714;2023-01-29T04:22:00;-2.70;99.90
18175;DHT22;9212;50.894;16.714;2023-01-29T04:27:06;-2.70;99.90
18175;DHT22;9212;50.894;16.714;2023-01-29T04:29:44;-2.70;99.90
18175;DHT22;9212;50.894;16.714;2023-01-29T04:32:21;-3.40;99.90
18175;DHT22;9212;50.894;16.714;2023-01-29T04:34:59;-2.70;99.90
18175;DHT22;9212;50.894;16.714;2023-01-29T04:37:35;-2.60;99.90
18175;DHT22;9212;50.894;16.714;2023-01-29T04:40:13;-2.70;99.90
18175;DHT22;9212;50.894;16.714;2023-01-29T04:42:46;-2.70;99.90
18175;DHT22;9212;50.894;16.714;2023-01-29T04:45:18;-3.70;99.90
18175;DHT22;9212;50.894;16.714;2023-01-29T04:47:58;-2.80;99.90
18175;DHT22;9212;50.894;16.714;2023-01-29T04:50:28;-2.80;99.90
18175;DHT22;9212;50.894;16.714;2023-01-29T04:53:03;-2.90;99.90
18175;DHT22;9212;50.894;16.714;2023-01-29T04:55:38;-2.90;99.90
18175;DHT22;9212;50.894;16.714;2023-01-29T04:58:10;-2.90;99.90
18175;DHT22;9212;50.894;16.714;2023-01-29T05:00:40;-2.90;99.90
18175;DHT22;9212;50.894;16.714;2023-01-29T05:03:11;-3.00;99.90
18175;DHT22;9212;50.894;16.714;2023-01-29T05:05:40;-3.10;99.90
18175;DHT22;9212;50.894;16.714;2023-01-29T05:08:10;-2.90;99.90
18175;DHT22;9212;50.894;16.714;2023-01-29T05:13:11;-2.90;99.90
18175;DHT22;9212;50.894;16.714;2023-01-29T05:15:40;-2.90;99.90
18175;DHT22;9212;50.894;16.714;2023-01-29T05:18:11;-2.90;99.90
18175;DHT22;9212;50.894;16.714;2023-01-29T05:20:40;-2.90;99.90
18175;DHT22;9212;50.894;16.714;2023-01-29T05:23:09;-3.00;99.90
18175;DHT22;9212;50.894;16.714;2023-01-29T05:25:36;-2.70;99.90
18175;DHT22;9212;50.894;16.714;2023-01-29T05:28:03;-2.20;99.90
18175;DHT22;9212;50.894;16.714;2023-01-29T05:30:31;-3.00;99.90
18175;DHT22;9212;50.894;16.714;2023-01-29T05:37:55;-3.00;99.90
18175;DHT22;9212;50.894;16.714;2023-01-29T05:40:23;-2.80;99.90
18175;DHT22;9212;50.894;16.714;2023-01-29T05:50:12;-3.00;99.90
18175;DHT22;9212;50.894;16.714;2023-01-29T05:55:09;-1.60;99.90
18175;DHT22;9212;50.894;16.714;2023-01-29T06:00:04;-3.10;99.90
18175;DHT22;9212;50.894;16.714;2023-01-29T06:02:31;-3.90;99.90
18175;DHT22;9212;50.894;16.714;2023-01-29T06:04:59;-3.00;99.90
18175;DHT22;9212;50.894;16.714;2023-01-29T06:12:21;-3.20;99.90
18175;DHT22;9212;50.894;16.714;2023-01-29T06:17:15;-3.20;99.90
18175;DHT22;9212;50.894;16.714;2023-01-29T06:22:10;-3.90;99.90
18175;DHT22;9212;50.894;16.714;2023-01-29T06:27:05;-3.20;99.90
18175;DHT22;9212;50.894;16.714;2023-01-29T06:31:59;-2.60;99.90
18175;DHT22;9212;50.894;16.714;2023-01-29T06:36:54;-3.60;99.90
18175;DHT22;9212;50.894;16.714;2023-01-29T06:39:20;-3.70;99.90
18175;DHT22;9212;50.894;16.714;2023-01-29T06:41:47;-4.60;99.90
18175;DHT22;9212;50.894;16.714;2023-01-29T06:49:10;-3.80;99.90
18175;DHT22;9212;50.894;16.714;2023-01-29T06:51:37;-3.70;99.90
18175;DHT22;9212;50.894;16.714;2023-01-29T06:54:04;-4.40;99.90
18175;DHT22;9212;50.894;16.714;2023-01-29T06:56:33;-3.90;99.90
18175;DHT22;9212;50.894;16.714;2023-01-29T07:03:56;-3.60;99.90
18175;DHT22;9212;50.894;16.714;2023-01-29T07:06:26;-3.90;99.90
18175;DHT22;9212;50.894;16.714;2023-01-29T07:11:21;-3.80;99.90
18175;DHT22;9212;50.894;16.714;2023-01-29T07:18:45;-3.50;99.90
18175;DHT22;9212;50.894;16.714;2023-01-29T07:21:11;-3.30;99.90
18175;DHT22;9212;50.894;16.714;2023-01-29T07:26:06;-3.20;99.90
18175;DHT22;9212;50.894;16.714;2023-01-29T07:28:35;-3.10;99.90
18175;DHT22;9212;50.894;16.714;2023-01-29T07:33:31;-2.80;99.90
18175;DHT22;9212;50.894;16.714;2023-01-29T07:35:59;-3.60;99.90
18175;DHT22;9212;50.894;16.714;2023-01-29T07:38:26;-2.80;99.90
18175;DHT22;9212;50.894;16.714;2023-01-29T07:43:21;-1.40;99.90
18175;DHT22;9212;50.894;16.714;2023-01-29T07:48:16;-2.60;99.90
18175;DHT22;9212;50.894;16.714;2023-01-29T07:53:13;-2.40;99.90
18175;DHT22;9212;50.894;16.714;2023-01-29T07:55:43;-2.00;99.90
18175;DHT22;9212;50.894;16.714;2023-01-29T07:58:10;-2.00;99.90
18175;DHT22;9212;50.894;16.714;2023-01-29T08:00:38;-0.50;99.90
18175;DHT22;9212;50.894;16.714;2023-01-29T08:03:06;-2.20;99.90
18175;DHT22;9212;50.894;16.714;2023-01-29T08:05:33;-2.00;99.90
18175;DHT22;9212;50.894;16.714;2023-01-29T08:12:57;-3.10;99.90
18175;DHT22;9212;50.894;16.714;2023-01-29T08:20:20;-1.80;99.90
18175;DHT22;9212;50.894;16.714;2023-01-29T08:25:15;-1.70;99.90
18175;DHT22;9212;50.894;16.714;2023-01-29T08:27:43;-1.50;99.90
18175;DHT22;9212;50.894;16.714;2023-01-29T08:30:11;-2.00;99.90
18175;DHT22;9212;50.894;16.714;2023-01-29T08:40:00;-1.40;99.90
18175;DHT22;9212;50.894;16.714;2023-01-29T08:44:56;-1.60;99.90
18175;DHT22;9212;50.894;16.714;2023-01-29T08:47:23;-1.60;99.90
18175;DHT22;9212;50.894;16.714;2023-01-29T08:59:39;-1.10;99.90
18175;DHT22;9212;50.894;16.714;2023-01-29T09:04:35;-1.00;99.90
18175;DHT22;9212;50.894;16.714;2023-01-29T09:11:57;-0.80;99.90
18175;DHT22;9212;50.894;16.714;2023-01-29T09:14:24;-0.70;99.90
18175;DHT22;9212;50.894;16.714;2023-01-29T09:19:20;-0.70;99.90
18175;DHT22;9212;50.894;16.714;2023-01-29T09:24:15;-0.30;99.90
18175;DHT22;9212;50.894;16.714;2023-01-29T09:41:36;0.10;99.90
18175;DHT22;9212;50.894;16.714;2023-01-29T09:44:12;0.00;99.90
18175;DHT22;9212;50.894;16.714;2023-01-29T09:46:43;0.20;99.90
18175;DHT22;9212;50.894;16.714;2023-01-29T09:49:14;0.30;99.90
18175;DHT22;9212;50.894;16.714;2023-01-29T09:51:48;0.30;99.90
18175;DHT22;9212;50.894;16.714;2023-01-29T09:54:22;0.30;99.90
18175;DHT22;9212;50.894;16.714;2023-01-29T09:56:52;0.40;99.90
18175;DHT22;9212;50.894;16.714;2023-01-29T09:59:23;0.60;99.90
18175;DHT22;9212;50.894;16.714;2023-01-29T10:02:04;0.70;99.90
18175;DHT22;9212;50.894;16.714;2023-01-29T10:04:48;1.00;99.90
18175;DHT22;9212;50.894;16.714;2023-01-29T10:07:33;1.00;99.90
18175;DHT22;9212;50.894;16.714;2023-01-29T10:10:17;1.00;99.90
18175;DHT22;9212;50.894;16.714;2023-01-29T10:13:00;2.00;99.90
18175;DHT22;9212;50.894;16.714;2023-01-29T10:15:41;1.00;99.90
18175;DHT22;9212;50.894;16.714;2023-01-29T10:18:32;1.70;99.90
18175;DHT22;9212;50.894;16.714;2023-01-29T10:21:11;1.00;99.90
18175;DHT22;9212;50.894;16.714;2023-01-29T10:23:49;0.90;99.90
18175;DHT22;9212;50.894;16.714;2023-01-29T10:26:22;1.10;99.90
18175;DHT22;9212;50.894;16.714;2023-01-29T10:28:53;1.00;99.90
18175;DHT22;9212;50.894;16.714;2023-01-29T10:31:24;1.00;99.90
18175;DHT22;9212;50.894;16.714;2023-01-29T10:33:55;1.00;99.90
18175;DHT22;9212;50.894;16.714;2023-01-29T10:36:31;1.10;99.90
18175;DHT22;9212;50.894;16.714;2023-01-29T10:39:00;1.20;99.90
18175;DHT22;9212;50.894;16.714;2023-01-29T10:44:39;1.40;99.90
18175;DHT22;9212;50.894;16.714;2023-01-29T10:47:22;1.50;99.90
18175;DHT22;9212;50.894;16.714;2023-01-29T10:52:52;1.40;99.90
18175;DHT22;9212;50.894;16.714;2023-01-29T10:55:33;1.50;99.90
18175;DHT22;9212;50.894;16.714;2023-01-29T10:58:11;1.40;99.90
18175;DHT22;9212;50.894;16.714;2023-01-29T11:00:41;1.50;99.90
18175;DHT22;9212;50.894;16.714;2023-01-29T11:03:14;1.60;99.90
18175;DHT22;9212;50.894;16.714;2023-01-29T11:05:46;1.60;99.90
18175;DHT22;9212;50.894;16.714;2023-01-29T11:08:21;1.60;99.90
18175;DHT22;9212;50.894;16.714;2023-01-29T11:10:57;1.60;99.90
18175;DHT22;9212;50.894;16.714;2023-01-29T11:13:30;1.60;99.90
18175;DHT22;9212;50.894;16.714;2023-01-29T11:21:00;2.20;99.90
18175;DHT22;9212;50.894;16.714;2023-01-29T11:23:29;1.80;99.90
18175;DHT22;9212;50.894;16.714;2023-01-29T11:25:59;1.70;99.90
18175;DHT22;9212;50.894;16.714;2023-01-29T11:28:39;1.80;99.90
18175;DHT22;9212;50.894;16.714;2023-01-29T11:31:18;1.90;99.90
18175;DHT22;9212;50.894;16.714;2023-01-29T11:33:46;1.80;99.90
18175;DHT22;9212;50.894;16.714;2023-01-29T11:36:21;1.80;99.90
18175;DHT22;9212;50.894;16.714;2023-01-29T11:39:09;1.90;99.90
18175;DHT22;9212;50.894;16.714;2023-01-29T11:41:44;1.90;99.90
18175;DHT22;9212;50.894;16.714;2023-01-29T11:44:27;1.90;99.90
18175;DHT22;9212;50.894;16.714;2023-01-29T11:46:55;1.80;99.90
18175;DHT22;9212;50.894;16.714;2023-01-29T11:49:30;2.00;99.90
18175;DHT22;9212;50.894;16.714;2023-01-29T11:52:00;2.00;99.90
18175;DHT22;9212;50.894;16.714;2023-01-29T11:54:31;2.00;99.90
18175;DHT22;9212;50.894;16.714;2023-01-29T11:57:02;2.10;99.90
18175;DHT22;9212;50.894;16.714;2023-01-29T11:59:38;2.00;99.90
18175;DHT22;9212;50.894;16.714;2023-01-29T12:02:36;1.80;99.90
18175;DHT22;9212;50.894;16.714;2023-01-29T12:05:12;1.80;99.90
18175;DHT22;9212;50.894;16.714;2023-01-29T12:07:41;1.80;99.90
18175;DHT22;9212;50.894;16.714;2023-01-29T12:10:31;1.90;99.90
18175;DHT22;9212;50.894;16.714;2023-01-29T12:13:20;1.90;99.90
18175;DHT22;9212;50.894;16.714;2023-01-29T12:16:06;2.00;99.90
18175;DHT22;9212;50.894;16.714;2023-01-29T12:18:39;2.10;99.90
18175;DHT22;9212;50.894;16.714;2023-01-29T12:21:13;2.10;99.90
18175;DHT22;9212;50.894;16.714;2023-01-29T12:23:49;2.00;99.90
18175;DHT22;9212;50.894;16.714;2023-01-29T12:26:24;1.90;99.90
18175;DHT22;9212;50.894;16.714;2023-01-29T12:29:14;1.80;99.90
18175;DHT22;9212;50.894;16.714;2023-01-29T12:31:48;1.80;99.90
18175;DHT22;9212;50.894;16.714;2023-01-29T12:34:23;1.70;99.90
18175;DHT22;9212;50.894;16.714;2023-01-29T12:36:58;1.90;99.90
18175;DHT22;9212;50.894;16.714;2023-01-29T12:41:56;1.60;99.90
18175;DHT22;9212;50.894;16.714;2023-01-29T12:44:30;1.60;99.90
18175;DHT22;9212;50.894;16.714;2023-01-29T12:47:04;2.00;99.90
18175;DHT22;9212;50.894;16.714;2023-01-29T12:49:34;1.80;99.90
18175;DHT22;9212;50.894;16.714;2023-01-29T12:52:08;1.60;99.90
18175;DHT22;9212;50.894;16.714;2023-01-29T12:54:41;1.60;99.90
18175;DHT22;9212;50.894;16.714;2023-01-29T12:57:17;1.50;99.90
18175;DHT22;9212;50.894;16.714;2023-01-29T12:59:49;1.60;99.90
18175;DHT22;9212;50.894;16.714;2023-01-29T13:02:31;1.60;99.90
18175;DHT22;9212;50.894;16.714;2023-01-29T13:05:04;1.60;99.90
18175;DHT22;9212;50.894;16.714;2023-01-29T13:07:38;1.60;99.90
18175;DHT22;9212;50.894;16.714;2023-01-29T13:10:13;1.60;99.90
18175;DHT22;9212;50.894;16.714;2023-01-29T13:12:48;1.60;99.90
18175;DHT22;9212;50.894;16.714;2023-01-29T13:15:23;1.50;99.90
18175;DHT22;9212;50.894;16.714;2023-01-29T13:17:56;1.40;99.90
18175;DHT22;9212;50.894;16.714;2023-01-29T13:20:27;1.40;99.90
18175;DHT22;9212;50.894;16.714;2023-01-29T13:22:58;1.40;99.90
18175;DHT22;9212;50.894;16.714;2023-01-29T13:30:28;1.30;99.90
18175;DHT22;9212;50.894;16.714;2023-01-29T13:32:58;1.30;99.90
18175;DHT22;9212;50.894;16.714;2023-01-29T13:40:30;1.40;99.90
18175;DHT22;9212;50.894;16.714;2023-01-29T13:42:59;1.60;99.90
18175;DHT22;9212;50.894;16.714;2023-01-29T13:45:33;1.50;99.90
18175;DHT22;9212;50.894;16.714;2023-01-29T13:48:09;1.50;99.90
18175;DHT22;9212;50.894;16.714;2023-01-29T13:50:38;1.70;99.90
18175;DHT22;9212;50.894;16.714;2023-01-29T13:53:15;1.70;99.90
18175;DHT22;9212;50.894;16.714;2023-01-29T13:58:15;1.60;99.90
18175;DHT22;9212;50.894;16.714;2023-01-29T14:00:53;1.60;99.90
18175;DHT22;9212;50.894;16.714;2023-01-29T14:06:46;1.60;99.90
18175;DHT22;9212;50.894;16.714;2023-01-29T14:09:34;1.50;99.90
18175;DHT22;9212;50.894;16.714;2023-01-29T14:12:44;1.30;99.90
18175;DHT22;9212;50.894;16.714;2023-01-29T14:18:05;1.30;99.90
18175;DHT22;9212;50.894;16.714;2023-01-29T14:20:36;1.20;99.90
18175;DHT22;9212;50.894;16.714;2023-01-29T14:23:04;1.10;99.90
18175;DHT22;9212;50.894;16.714;2023-01-29T14:25:34;1.00;99.90
18175;DHT22;9212;50.894;16.714;2023-01-29T14:28:03;1.00;99.90
18175;DHT22;9212;50.894;16.714;2023-01-29T14:33:25;0.90;99.90
18175;DHT22;9212;50.894;16.714;2023-01-29T14:38:26;0.80;99.90
18175;DHT22;9212;50.894;16.714;2023-01-29T14:41:04;0.90;99.90
18175;DHT22;9212;50.894;16.714;2023-01-29T14:43:33;1.00;99.90
18175;DHT22;9212;50.894;16.714;2023-01-29T14:49:06;0.70;99.90
18175;DHT22;9212;50.894;16.714;2023-01-29T14:51:36;0.70;99.90
18175;DHT22;9212;50.894;16.714;2023-01-29T14:54:11;0.80;99.90
18175;DHT22;9212;50.894;16.714;2023-01-29T14:56:45;0.60;99.90
18175;DHT22;9212;50.894;16.714;2023-01-29T14:59:18;0.50;99.90
18175;DHT22;9212;50.894;16.714;2023-01-29T15:01:48;0.40;99.90
18175;DHT22;9212;50.894;16.714;2023-01-29T15:04:22;0.40;99.90
18175;DHT22;9212;50.894;16.714;2023-01-29T15:06:56;0.20;99.90
18175;DHT22;9212;50.894;16.714;2023-01-29T15:09:33;0.20;99.90
18175;DHT22;9212;50.894;16.714;2023-01-29T15:12:07;0.20;99.90
18175;DHT22;9212;50.894;16.714;2023-01-29T15:14:45;0.20;99.90
18175;DHT22;9212;50.894;16.714;2023-01-29T15:17:21;0.20;99.90
18175;DHT22;9212;50.894;16.714;2023-01-29T15:19:50;0.10;99.90
18175;DHT22;9212;50.894;16.714;2023-01-29T15:22:18;0.20;99.90
18175;DHT22;9212;50.894;16.714;2023-01-29T15:24:54;0.20;99.90
18175;DHT22;9212;50.894;16.714;2023-01-29T15:29:58;0.20;99.90
18175;DHT22;9212;50.894;16.714;2023-01-29T15:32:27;0.20;99.90
18175;DHT22;9212;50.894;16.714;2023-01-29T15:37:29;0.10;99.90
18175;DHT22;9212;50.894;16.714;2023-01-29T15:39:58;0.10;99.90
18175;DHT22;9212;50.894;16.714;2023-01-29T15:42:26;0.00;99.90
18175;DHT22;9212;50.894;16.714;2023-01-29T15:47:23;0.10;99.90
18175;DHT22;9212;50.894;16.714;2023-01-29T15:49:51;0.00;99.90
18175;DHT22;9212;50.894;16.714;2023-01-29T15:52:24;0.00;99.90
18175;DHT22;9212;50.894;16.714;2023-01-29T15:54:54;0.00;99.90
18175;DHT22;9212;50.894;16.714;2023-01-29T15:57:23;0.00;99.90
18175;DHT22;9212;50.894;16.714;2023-01-29T16:02:28;0.00;99.90
18175;DHT22;9212;50.894;16.714;2023-01-29T16:04:58;-0.10;99.90
18175;DHT22;9212;50.894;16.714;2023-01-29T16:19:55;-0.10;99.90
18175;DHT22;9212;50.894;16.714;2023-01-29T16:22:29;-0.10;99.90
18175;DHT22;9212;50.894;16.714;2023-01-29T16:25:02;-0.10;99.90
18175;DHT22;9212;50.894;16.714;2023-01-29T16:27:31;-0.10;99.90
18175;DHT22;9212;50.894;16.714;2023-01-29T16:29:59;-0.10;99.90
18175;DHT22;9212;50.894;16.714;2023-01-29T16:34:56;-0.30;99.90
18175;DHT22;9212;50.894;16.714;2023-01-29T16:37:28;-0.20;99.90
18175;DHT22;9212;50.894;16.714;2023-01-29T16:44:54;-0.20;99.90
18175;DHT22;9212;50.894;16.714;2023-01-29T16:47:28;-0.20;99.90
18175;DHT22;9212;50.894;16.714;2023-01-29T16:49:56;-0.20;99.90
18175;DHT22;9212;50.894;16.714;2023-01-29T16:52:28;-0.20;99.90
18175;DHT22;9212;50.894;16.714;2023-01-29T16:55:16;-0.20;99.90
18175;DHT22;9212;50.894;16.714;2023-01-29T16:57:49;-0.30;99.90
18175;DHT22;9212;50.894;16.714;2023-01-29T17:00:20;-0.20;99.90
18175;DHT22;9212;50.894;16.714;2023-01-29T17:02:50;-0.30;99.90
18175;DHT22;9212;50.894;16.714;2023-01-29T17:05:21;-0.30;99.90
18175;DHT22;9212;50.894;16.714;2023-01-29T17:07:51;-0.30;99.90
18175;DHT22;9212;50.894;16.714;2023-01-29T17:10:19;-0.30;99.90
18175;DHT22;9212;50.894;16.714;2023-01-29T17:12:53;-0.30;99.90
18175;DHT22;9212;50.894;16.714;2023-01-29T17:15:42;-0.30;99.90
18175;DHT22;9212;50.894;16.714;2023-01-29T17:18:16;-0.30;99.90
18175;DHT22;9212;50.894;16.714;2023-01-29T17:25:39;-0.30;99.90
18175;DHT22;9212;50.894;16.714;2023-01-29T17:33:10;-0.30;99.90
18175;DHT22;9212;50.894;16.714;2023-01-29T17:38:09;-0.40;99.90
18175;DHT22;9212;50.894;16.714;2023-01-29T17:40:40;-0.40;99.90
18175;DHT22;9212;50.894;16.714;2023-01-29T17:48:04;-0.30;99.90
18175;DHT22;9212;50.894;16.714;2023-01-29T17:50:33;-0.30;99.90
18175;DHT22;9212;50.894;16.714;2023-01-29T17:57:57;-0.20;99.90
18175;DHT22;9212;50.894;16.714;2023-01-29T18:10:18;-0.30;99.90
18175;DHT22;9212;50.894;16.714;2023-01-29T18:12:46;-0.30;99.90
18175;DHT22;9212;50.894;16.714;2023-01-29T18:20:16;-0.30;99.90
18175;DHT22;9212;50.894;16.714;2023-01-29T18:22:44;-0.30;99.90
18175;DHT22;9212;50.894;16.714;2023-01-29T18:25:11;-3.40;99.90
18175;DHT22;9212;50.894;16.714;2023-01-29T18:39:58;-0.30;99.90
18175;DHT22;9212;50.894;16.714;2023-01-29T18:57:11;-0.50;99.90
18175;DHT22;9212;50.894;16.714;2023-01-29T19:07:02;-0.90;99.90
18175;DHT22;9212;50.894;16.714;2023-01-29T19:19:19;-1.30;99.90
18175;DHT22;9212;50.894;16.714;2023-01-29T19:29:09;-1.10;99.90
18175;DHT22;9212;50.894;16.714;2023-01-29T19:41:26;-0.90;99.90
18175;DHT22;9212;50.894;16.714;2023-01-29T19:56:12;-0.90;99.90
18175;DHT22;9212;50.894;16.714;2023-01-29T19:58:41;-1.10;99.90
18175;DHT22;9212;50.894;16.714;2023-01-29T20:01:13;-1.00;99.90
18175;DHT22;9212;50.894;16.714;2023-01-29T20:08:35;-1.20;99.90
18175;DHT22;9212;50.894;16.714;2023-01-29T20:16:00;-1.20;99.90
18175;DHT22;9212;50.894;16.714;2023-01-29T20:28:18;-1.30;99.90
18175;DHT22;9212;50.894;16.714;2023-01-29T20:38:08;-1.40;99.90
18175;DHT22;9212;50.894;16.714;2023-01-29T20:40:35;-1.50;99.90
18175;DHT22;9212;50.894;16.714;2023-01-29T20:50:26;-1.50;99.90
18175;DHT22;9212;50.894;16.714;2023-01-29T21:00:15;-1.70;99.90
18175;DHT22;9212;50.894;16.714;2023-01-29T21:07:40;0.40;99.90
18175;DHT22;9212;50.894;16.714;2023-01-29T21:15:02;-1.60;99.90
18175;DHT22;9212;50.894;16.714;2023-01-29T21:22:24;-1.90;99.90
18175;DHT22;9212;50.894;16.714;2023-01-29T21:42:05;-2.60;99.90
18175;DHT22;9212;50.894;16.714;2023-01-29T21:54:42;-2.20;99.90
18175;DHT22;9212;50.894;16.714;2023-01-29T21:57:15;-2.10;99.90
18175;DHT22;9212;50.894;16.714;2023-01-29T22:02:11;-2.30;99.90
18175;DHT22;9212;50.894;16.714;2023-01-29T22:16:58;-2.10;99.90
18175;DHT22;9212;50.894;16.714;2023-01-29T22:19:25;-2.60;99.90
18175;DHT22;9212;50.894;16.714;2023-01-29T22:24:21;-2.40;99.90
18175;DHT22;9212;50.894;16.714;2023-01-29T22:31:44;-2.50;99.90
18175;DHT22;9212;50.894;16.714;2023-01-29T22:34:12;-2.40;99.90
18175;DHT22;9212;50.894;16.714;2023-01-29T22:39:07;-2.30;99.90
18175;DHT22;9212;50.894;16.714;2023-01-29T22:44:02;-3.10;99.90
18175;DHT22;9212;50.894;16.714;2023-01-29T22:51:25;-2.60;99.90
18175;DHT22;9212;50.894;16.714;2023-01-29T22:53:53;-2.60;99.90
18175;DHT22;9212;50.894;16.714;2023-01-29T22:56:22;-2.60;99.90
18175;DHT22;9212;50.894;16.714;2023-01-29T23:11:10;-2.90;99.90
18175;DHT22;9212;50.894;16.714;2023-01-29T23:13:41;-2.80;99.90
18175;DHT22;9212;50.894;16.714;2023-01-29T23:23:33;-2.80;99.90
18175;DHT22;9212;50.894;16.714;2023-01-29T23:26:02;-3.40;99.90
18175;DHT22;9212;50.894;16.714;2023-01-29T23:33:41;-2.90;99.90
18175;DHT22;9212;50.894;16.714;2023-01-29T23:43:32;-2.60;99.90
18175;DHT22;9212;50.894;16.714;2023-01-29T23:45:59;-2.90;99.90
18175;DHT22;9212;50.894;16.714;2023-01-29T23:50:54;-3.10;99.90
18175;DHT22;9212;50.894;16.714;2023-01-29T23:55:56;-2.90;99.90
18175;DHT22;9212;50.894;16.714;2023-01-29T23:58:24;-3.00;99.90
